Pagina principale
METAR-TAF:

METAR-TAF

Aeroporti :

Aeroporto di Lugano-Agno

Lugano, Svizzera

latitudine: 46-00N, longitudine: 008-58E, altezza: 273 m

Osservazione

Il bollettino è stato emesso 19 minuti fa, alle 18:20 UTC
Vento 3 kt da sud
Temperature 13°C
Umidità 94%
Pressione 1005 hPa
Visibilità 10 km o più
Poco nuvoloso ad un'altezza di 1400 ft
Nuvoloso ad un'altezza di 5500 ft
Cielo coperto ad un'altezza di 11000 ft
pioggia debole

METAR: LSZA 191820Z 19003KT 9999 -RA FEW014 BKN055 OVC110 13/12 Q1005 NOSIG

Ora: 20:39 (18:39 UTC)

Previsione

Il bollettino è stato emesso 4 ore e 14 minuti fa, alle 14:25 UTC
Previsione valida dal 19 alle 15 UTC al 19 alle 24 UTC
Vento 5 kt da sud/sud-ovest
Visibilità 10 km o più
Nubi sparse ad un'altezza di 1500 ft
Nuvoloso ad un'altezza di 6000 ft
Cielo coperto ad un'altezza di 8000 ft
Temporaneamente
dal 19 alle 15 UTC al 19 alle 24 UTC
rovesci di pioggia

TAF: LSZA 191425Z 1915/1924 20005KT 9999 SCT015 BKN060 OVC080 TEMPO 1915/1924 SHRA

Osservazioni e previsioni meteorologiche di più di 4000 aeroporti (messaggi METAR e TAF).

Le stazioni disponibili sono rappresentate dai dischi gialli e rossi sulla carta.

Puntare il mouse per vedere il nome della stazione.

Clicca sopra per visualizzare le osservazioni e previsioni meteorologiche.

Per cambiare la mappa : fare clic sui pulsanti verdi con una croce nera per ingrandire, il pulsante verde con un trattino per diminuire, o sulla freccia verde per le mappe adiacenti.


METAR-TAF: